createdAt,value
2023-01-05T00:01:11.701Z,26.92
2023-01-05T00:03:39.061Z,22.77
2023-01-05T00:06:11.429Z,22.75
2023-01-05T00:08:38.900Z,24.65
2023-01-05T00:11:45.046Z,25.65
2023-01-05T00:14:35.894Z,25.60
2023-01-05T00:17:21.379Z,28.40
2023-01-05T00:20:07.034Z,23.63
2023-01-05T00:22:39.041Z,24.70
2023-01-05T00:25:13.777Z,23.80
2023-01-05T00:27:42.481Z,24.73
2023-01-05T00:30:12.008Z,24.63
2023-01-05T00:32:39.142Z,25.73
2023-01-05T00:35:06.188Z,25.08
2023-01-05T00:37:35.610Z,29.05
2023-01-05T00:40:02.484Z,27.13
2023-01-05T00:42:29.562Z,25.48
2023-01-05T00:44:56.458Z,23.60
2023-01-05T00:47:23.356Z,22.98
2023-01-05T00:49:50.279Z,23.58
2023-01-05T00:52:17.444Z,23.77
2023-01-05T00:54:44.291Z,22.67
2023-01-05T00:57:12.374Z,26.08
2023-01-05T00:59:39.811Z,21.98
2023-01-05T01:02:07.238Z,22.20
2023-01-05T01:04:34.981Z,18.63
2023-01-05T01:07:04.504Z,21.85
2023-01-05T01:09:31.546Z,24.33
2023-01-05T01:11:58.569Z,20.52
2023-01-05T01:14:25.952Z,25.23
2023-01-05T01:16:52.827Z,22.13
2023-01-05T01:19:25.157Z,27.08
2023-01-05T01:21:52.188Z,22.25
2023-01-05T01:24:25.965Z,25.45
2023-01-05T01:26:54.115Z,21.67
2023-01-05T01:29:21.993Z,26.38
2023-01-05T01:31:50.347Z,23.52
2023-01-05T01:34:17.744Z,22.20
2023-01-05T01:36:45.080Z,21.92
2023-01-05T01:39:13.549Z,23.45
2023-01-05T01:41:43.832Z,36.55
2023-01-05T01:44:48.928Z,21.63
2023-01-05T01:47:20.188Z,19.85
2023-01-05T01:49:47.626Z,24.45
2023-01-05T01:52:15.322Z,21.15
2023-01-05T01:54:42.813Z,20.92
2023-01-05T01:57:11.840Z,21.83
2023-01-05T01:59:39.573Z,21.70
2023-01-05T02:02:07.972Z,25.17
2023-01-05T02:04:37.681Z,26.63
2023-01-05T02:07:07.491Z,24.13
2023-01-05T02:09:35.053Z,21.90
2023-01-05T02:12:09.307Z,23.80
2023-01-05T02:15:00.249Z,28.10
2023-01-05T02:17:58.758Z,29.42
2023-01-05T02:20:48.010Z,28.70
2023-01-05T02:23:36.029Z,28.80
2023-01-05T02:26:41.256Z,36.42
2023-01-05T02:29:11.185Z,33.70
2023-01-05T02:31:58.204Z,38.03
2023-01-05T02:34:58.519Z,49.33
2023-01-05T02:37:34.788Z,47.08
2023-01-05T02:40:21.146Z,44.40
2023-01-05T02:42:53.220Z,48.78
2023-01-05T02:45:23.369Z,41.50
2023-01-05T02:47:55.233Z,36.00
2023-01-05T02:50:41.336Z,35.35
2023-01-05T02:53:29.894Z,33.47
2023-01-05T02:56:05.115Z,36.75
2023-01-05T02:58:41.855Z,35.55
2023-01-05T03:01:17.499Z,36.70
2023-01-05T03:03:58.757Z,42.20
2023-01-05T03:06:33.884Z,38.60
2023-01-05T03:09:05.030Z,33.97
2023-01-05T03:12:19.458Z,41.50
2023-01-05T03:27:09.954Z,38.78
2023-01-05T03:29:56.016Z,44.40
2023-01-05T03:32:45.870Z,40.83
2023-01-05T03:35:38.542Z,39.17
2023-01-05T03:38:40.532Z,36.85
2023-01-05T03:41:12.723Z,36.90
2023-01-05T03:43:43.214Z,38.08
2023-01-05T03:46:14.154Z,37.88
2023-01-05T03:48:43.496Z,43.15
2023-01-05T03:51:10.558Z,44.65
2023-01-05T03:53:40.062Z,41.13
2023-01-05T03:56:07.878Z,43.38
2023-01-05T03:58:35.228Z,47.53
2023-01-05T04:01:02.357Z,50.63
2023-01-05T04:03:32.268Z,58.88
2023-01-05T04:06:03.277Z,48.50
2023-01-05T04:08:32.440Z,49.25
2023-01-05T04:11:18.034Z,51.92
2023-01-05T04:13:53.365Z,57.58
2023-01-05T04:16:21.469Z,51.58
2023-01-05T04:18:50.280Z,46.63
2023-01-05T04:21:19.598Z,52.97
2023-01-05T04:23:48.527Z,45.45
2023-01-05T04:26:17.034Z,52.60
2023-01-05T04:28:49.565Z,43.90
2023-01-05T04:31:18.922Z,48.03
2023-01-05T04:33:46.029Z,46.92
2023-01-05T04:36:17.743Z,45.22
2023-01-05T04:38:46.192Z,47.33
2023-01-05T04:41:13.767Z,45.38
2023-01-05T04:43:44.511Z,42.47
2023-01-05T04:46:12.878Z,39.50
2023-01-05T04:48:39.771Z,40.65
2023-01-05T04:51:07.692Z,43.05
2023-01-05T04:53:37.640Z,52.47
2023-01-05T04:56:06.727Z,49.35
2023-01-05T04:58:41.047Z,50.67
2023-01-05T05:01:08.301Z,52.70
2023-01-05T05:03:36.981Z,59.75
2023-01-05T05:06:07.062Z,51.92
2023-01-05T05:08:33.951Z,47.38
2023-01-05T05:11:02.978Z,44.78
2023-01-05T05:13:33.008Z,44.30
2023-01-05T05:16:01.267Z,45.42
2023-01-05T05:18:29.712Z,51.65
2023-01-05T05:20:56.591Z,51.63
2023-01-05T05:23:29.078Z,50.30
2023-01-05T05:25:57.382Z,47.75
2023-01-05T05:28:28.371Z,54.65
2023-01-05T05:30:59.311Z,47.83
2023-01-05T05:33:29.635Z,45.67
2023-01-05T05:35:56.593Z,45.03
2023-01-05T05:38:23.563Z,50.70
2023-01-05T05:40:50.625Z,47.08
2023-01-05T05:43:17.658Z,49.30
2023-01-05T05:45:49.953Z,47.58
2023-01-05T05:48:18.415Z,59.17
2023-01-05T05:50:45.930Z,52.15
2023-01-05T05:53:13.054Z,52.55
2023-01-05T05:55:39.971Z,48.78
2023-01-05T05:58:07.084Z,48.38
2023-01-05T06:00:34.254Z,43.92
2023-01-05T06:03:01.292Z,49.28
2023-01-05T06:05:28.447Z,53.67
2023-01-05T06:07:55.228Z,44.33
2023-01-05T06:10:22.120Z,48.35
2023-01-05T06:12:49.128Z,54.13
2023-01-05T06:15:16.134Z,52.42
2023-01-05T06:17:43.020Z,53.03
2023-01-05T06:20:10.250Z,52.40
2023-01-05T06:22:37.327Z,46.85
2023-01-05T06:25:05.278Z,46.78
2023-01-05T06:27:32.699Z,56.83
2023-01-05T06:29:59.659Z,57.85
2023-01-05T06:32:26.525Z,52.10
2023-01-05T06:34:53.396Z,44.90
2023-01-05T06:37:20.412Z,53.28
2023-01-05T06:39:47.234Z,51.95
2023-01-05T06:42:14.965Z,52.65
2023-01-05T06:44:43.846Z,49.80
2023-01-05T06:47:10.721Z,51.95
2023-01-05T06:49:37.530Z,48.85
2023-01-05T06:52:04.792Z,45.17
2023-01-05T06:54:31.563Z,45.95
2023-01-05T06:56:58.491Z,43.80
2023-01-05T06:59:25.372Z,42.35
2023-01-05T07:01:52.361Z,37.10
2023-01-05T07:04:19.604Z,37.78
2023-01-05T07:06:46.723Z,47.65
2023-01-05T07:09:13.653Z,34.10
2023-01-05T07:11:40.498Z,40.55
2023-01-05T07:14:07.366Z,38.40
2023-01-05T07:16:34.206Z,40.47
2023-01-05T07:19:01.144Z,40.55
2023-01-05T07:21:28.085Z,39.97
2023-01-05T07:23:55.005Z,33.50
2023-01-05T07:26:22.012Z,35.55
2023-01-05T07:28:48.907Z,33.33
2023-01-05T07:31:15.957Z,33.05
2023-01-05T07:33:42.881Z,34.25
2023-01-05T07:36:10.045Z,38.90
2023-01-05T07:38:36.928Z,31.40
2023-01-05T07:41:04.208Z,31.45
2023-01-05T07:43:31.180Z,30.40
2023-01-05T07:46:02.467Z,26.10
2023-01-05T07:48:29.557Z,31.98
2023-01-05T07:51:04.653Z,26.02
2023-01-05T07:53:38.105Z,29.92
2023-01-05T07:56:12.007Z,30.77
2023-01-05T07:58:39.083Z,28.13
2023-01-05T08:01:12.377Z,27.98
2023-01-05T08:03:39.848Z,30.10
2023-01-05T08:06:09.088Z,28.00
2023-01-05T08:08:36.421Z,31.73
2023-01-05T08:11:09.544Z,27.17
2023-01-05T08:13:55.361Z,25.90
2023-01-05T08:16:22.932Z,26.20
2023-01-05T08:18:49.861Z,31.55
2023-01-05T08:21:16.832Z,32.03
2023-01-05T08:23:45.886Z,23.40
2023-01-05T08:26:15.827Z,26.15
2023-01-05T08:28:43.209Z,26.48
2023-01-05T08:31:17.947Z,22.23
2023-01-05T08:33:45.382Z,23.10
2023-01-05T08:36:15.561Z,30.40
2023-01-05T08:38:48.321Z,22.08
2023-01-05T08:41:17.949Z,24.58
2023-01-05T08:43:44.863Z,23.80
2023-01-05T08:46:11.793Z,20.20
2023-01-05T08:48:38.673Z,24.17
2023-01-05T08:51:07.537Z,28.10
2023-01-05T08:53:34.948Z,25.13
2023-01-05T08:56:02.653Z,27.65
2023-01-05T08:58:29.690Z,24.95
2023-01-05T09:00:56.686Z,25.30
2023-01-05T09:03:23.705Z,26.30
2023-01-05T09:05:54.465Z,19.15
2023-01-05T09:08:21.368Z,19.67
2023-01-05T09:10:48.281Z,18.08
2023-01-05T09:13:17.185Z,20.25
2023-01-05T09:15:44.167Z,18.48
2023-01-05T09:18:11.118Z,20.85
2023-01-05T09:20:42.544Z,21.33
2023-01-05T09:23:09.392Z,20.70
2023-01-05T09:25:38.903Z,20.85
2023-01-05T09:28:05.772Z,23.30
2023-01-05T09:30:40.985Z,20.83
2023-01-05T09:33:09.085Z,22.70
2023-01-05T09:35:35.886Z,36.67
2023-01-05T09:38:02.749Z,22.55
2023-01-05T09:40:35.132Z,18.80
2023-01-05T09:43:02.156Z,19.45
2023-01-05T09:45:29.213Z,21.23
2023-01-05T09:47:59.341Z,20.35
2023-01-05T09:50:31.052Z,23.73
2023-01-05T09:53:00.219Z,20.00
2023-01-05T09:55:30.749Z,19.55
2023-01-05T09:58:27.926Z,21.10
2023-01-05T10:01:07.622Z,18.73
2023-01-05T10:04:03.996Z,19.17
2023-01-05T10:06:34.687Z,19.85
2023-01-05T10:09:04.418Z,16.25
2023-01-05T10:12:03.566Z,17.13
2023-01-05T10:14:53.063Z,19.92
2023-01-05T10:20:14.263Z,21.13
2023-01-05T10:22:57.974Z,18.55
2023-01-05T10:25:48.911Z,19.42
2023-01-05T10:28:25.131Z,15.25
2023-01-05T10:31:03.041Z,16.67
2023-01-05T10:34:05.932Z,15.77
2023-01-05T10:37:09.485Z,14.48
2023-01-05T10:39:56.674Z,18.48
2023-01-05T10:42:46.438Z,14.85
2023-01-05T10:45:19.741Z,16.05
2023-01-05T10:47:49.455Z,15.45
2023-01-05T10:50:22.596Z,20.88
2023-01-05T10:52:49.721Z,20.97
2023-01-05T10:55:19.075Z,16.23
2023-01-05T10:57:46.931Z,19.52
2023-01-05T11:00:21.297Z,18.75
2023-01-05T11:03:03.230Z,17.63
2023-01-05T11:05:37.192Z,17.83
2023-01-05T11:08:25.810Z,21.33
2023-01-05T11:11:07.816Z,15.73
2023-01-05T11:13:46.598Z,19.35
2023-01-05T11:16:16.550Z,17.70
2023-01-05T11:18:55.385Z,19.50
2023-01-05T11:21:29.081Z,16.60
2023-01-05T11:23:59.004Z,16.75
2023-01-05T11:26:28.186Z,23.40
2023-01-05T11:29:10.285Z,15.68
2023-01-05T11:32:02.306Z,14.13
2023-01-05T11:34:31.274Z,15.95
2023-01-05T11:37:08.108Z,16.00
2023-01-05T11:39:47.403Z,15.60
2023-01-05T11:42:29.640Z,29.52
2023-01-05T11:45:08.211Z,21.70
2023-01-05T11:47:46.421Z,15.13
2023-01-05T11:50:13.336Z,19.50
2023-01-05T11:52:46.945Z,20.77
2023-01-05T11:55:19.970Z,17.52
2023-01-05T11:57:50.527Z,20.15
2023-01-05T12:00:32.572Z,19.33
2023-01-05T12:03:30.420Z,19.40
2023-01-05T12:06:04.440Z,37.63
2023-01-05T12:08:41.922Z,22.35
2023-01-05T12:11:19.308Z,16.15
2023-01-05T12:14:07.489Z,14.77
2023-01-05T12:16:37.193Z,17.70
2023-01-05T12:19:32.977Z,19.58
2023-01-05T12:22:05.877Z,20.90
2023-01-05T12:25:09.895Z,18.95
2023-01-05T12:27:51.322Z,26.42
2023-01-05T12:36:21.677Z,20.33
2023-01-05T12:42:09.929Z,23.70
2023-01-05T12:44:51.405Z,21.83
2023-01-05T12:47:39.879Z,19.80
2023-01-05T12:50:37.730Z,19.40
2023-01-05T12:53:26.257Z,20.13
2023-01-05T12:56:00.945Z,18.15
2023-01-05T12:58:34.998Z,22.65
2023-01-05T13:01:05.943Z,20.65
2023-01-05T13:04:17.586Z,18.83
2023-01-05T13:06:52.090Z,20.13
2023-01-05T13:09:23.065Z,21.08
2023-01-05T13:11:59.495Z,19.38
2023-01-05T13:14:31.062Z,19.10
2023-01-05T13:17:10.452Z,19.30
2023-01-05T13:19:44.978Z,21.42
2023-01-05T13:22:28.639Z,30.52
2023-01-05T13:25:01.081Z,21.63
2023-01-05T13:27:29.815Z,26.58
2023-01-05T13:29:59.813Z,22.27
2023-01-05T13:32:57.655Z,17.23
2023-01-05T13:35:49.377Z,18.67
2023-01-05T13:38:37.885Z,18.40
2023-01-05T13:41:19.231Z,16.50
2023-01-05T13:43:49.093Z,19.25
2023-01-05T13:47:03.537Z,25.40
2023-01-05T13:49:51.867Z,20.65
2023-01-05T13:52:24.634Z,20.35
2023-01-05T13:55:01.969Z,28.00
2023-01-05T13:57:37.854Z,23.15
2023-01-05T14:00:12.420Z,20.05
2023-01-05T14:02:43.391Z,22.98
2023-01-05T14:05:25.928Z,21.20
2023-01-05T14:07:55.494Z,24.83
2023-01-05T14:10:28.994Z,26.70
2023-01-05T14:12:56.689Z,24.75
2023-01-05T14:15:32.694Z,19.25
2023-01-05T14:18:04.145Z,22.42
2023-01-05T14:20:39.882Z,32.50
2023-01-05T14:23:29.848Z,26.85
2023-01-05T14:26:00.871Z,32.13
2023-01-05T14:28:30.821Z,24.63
2023-01-05T14:31:19.030Z,39.67
2023-01-05T14:34:03.693Z,28.05
2023-01-05T14:39:20.198Z,26.60
2023-01-05T14:41:59.303Z,26.20
2023-01-05T14:44:36.061Z,26.90
2023-01-05T14:47:04.653Z,36.90
2023-01-05T14:49:55.191Z,31.02
2023-01-05T14:52:59.038Z,29.92
2023-01-05T14:55:39.601Z,37.97
2023-01-05T14:58:36.197Z,32.00
2023-01-05T15:03:53.493Z,32.58
2023-01-05T15:07:08.545Z,29.27
2023-01-05T15:09:54.140Z,29.45
2023-01-05T15:12:39.832Z,24.30
2023-01-05T15:29:27.560Z,37.28
2023-01-05T15:32:18.508Z,37.60
2023-01-05T15:34:52.906Z,39.72
2023-01-05T15:39:56.679Z,40.03
2023-01-05T15:42:34.524Z,47.75
2023-01-05T15:45:01.804Z,43.38
2023-01-05T15:47:30.112Z,40.13
2023-01-05T15:50:00.053Z,34.00
2023-01-05T15:52:38.088Z,43.50
2023-01-05T15:55:10.690Z,31.98
2023-01-05T15:57:37.594Z,30.27
2023-01-05T16:00:18.179Z,28.00
2023-01-05T16:02:45.186Z,31.15
2023-01-05T16:05:18.335Z,32.00
2023-01-05T16:07:47.312Z,35.50
2023-01-05T16:10:24.038Z,29.85
2023-01-05T16:12:57.181Z,39.40
2023-01-05T16:15:26.213Z,35.03
2023-01-05T16:17:56.936Z,37.50
2023-01-05T16:20:26.026Z,41.28
2023-01-05T16:23:22.003Z,45.95
2023-01-05T16:25:59.407Z,46.47
2023-01-05T16:28:26.954Z,44.80
2023-01-05T16:30:55.138Z,45.30
2023-01-05T16:33:36.015Z,52.22
2023-01-05T16:36:13.368Z,47.92
2023-01-05T16:38:41.160Z,41.28
2023-01-05T16:41:54.363Z,46.13
2023-01-05T16:44:21.237Z,52.22
2023-01-05T16:47:04.827Z,55.10
2023-01-05T16:49:43.595Z,56.85
2023-01-05T16:52:23.941Z,61.42
2023-01-05T16:55:35.799Z,58.22
2023-01-05T16:58:24.402Z,61.83
2023-01-05T17:00:51.468Z,58.83
2023-01-05T17:03:31.514Z,50.50
2023-01-05T17:06:00.653Z,54.08
2023-01-05T17:08:31.836Z,55.45
2023-01-05T17:11:00.571Z,47.88
2023-01-05T17:13:37.623Z,52.90
2023-01-05T17:16:06.004Z,57.30
2023-01-05T17:18:32.828Z,57.72
2023-01-05T17:21:00.936Z,48.78
2023-01-05T17:23:31.416Z,58.03
2023-01-05T17:26:03.477Z,61.42
2023-01-05T17:28:30.488Z,50.15
2023-01-05T17:30:57.477Z,55.25
2023-01-05T17:33:24.433Z,60.40
2023-01-05T17:35:51.596Z,59.42
2023-01-05T17:38:18.658Z,61.72
2023-01-05T17:40:45.469Z,58.83
2023-01-05T17:43:12.426Z,57.88
2023-01-05T17:45:44.102Z,53.65
2023-01-05T17:50:45.011Z,46.95
2023-01-05T17:53:11.987Z,49.78
2023-01-05T17:55:41.474Z,48.15
2023-01-05T17:58:09.256Z,51.70
2023-01-05T18:00:39.829Z,53.35
2023-01-05T18:03:06.761Z,51.88
2023-01-05T18:05:33.652Z,49.72
2023-01-05T18:08:00.594Z,42.50
2023-01-05T18:10:29.328Z,45.92
2023-01-05T18:12:56.925Z,39.08
2023-01-05T18:15:24.032Z,43.17
2023-01-05T18:17:50.916Z,37.15
2023-01-05T18:20:19.972Z,33.78
2023-01-05T18:22:48.719Z,33.70
2023-01-05T18:25:16.152Z,37.78
2023-01-05T18:27:43.461Z,32.97
2023-01-05T18:30:12.133Z,40.25
2023-01-05T18:32:39.485Z,33.60
2023-01-05T18:35:10.000Z,35.20
2023-01-05T18:37:38.844Z,29.75
2023-01-05T18:40:06.681Z,30.73
2023-01-05T18:42:33.623Z,35.05
2023-01-05T18:45:08.949Z,37.20
2023-01-05T18:47:49.297Z,31.48
2023-01-05T18:50:16.650Z,38.35
2023-01-05T18:52:43.517Z,35.88
2023-01-05T18:55:11.310Z,35.17
2023-01-05T18:57:38.239Z,39.55
2023-01-05T19:00:06.178Z,29.85
2023-01-05T19:02:33.092Z,35.58
2023-01-05T19:05:00.069Z,34.20
2023-01-05T19:07:27.615Z,37.72
2023-01-05T19:09:54.556Z,42.05
2023-01-05T19:12:21.456Z,36.28
2023-01-05T19:14:48.415Z,44.33
2023-01-05T19:17:15.269Z,42.65
2023-01-05T19:19:42.275Z,48.03
2023-01-05T19:22:09.142Z,47.33
2023-01-05T19:24:38.410Z,45.60
2023-01-05T19:27:05.405Z,39.15
2023-01-05T19:29:32.277Z,49.75
2023-01-05T19:31:59.119Z,42.70
2023-01-05T19:34:26.069Z,39.15
2023-01-05T19:36:52.966Z,44.35
2023-01-05T19:39:21.966Z,43.35
2023-01-05T19:41:51.511Z,44.63
2023-01-05T19:44:21.324Z,48.03
2023-01-05T19:46:54.667Z,40.22
2023-01-05T19:49:27.139Z,45.50
2023-01-05T19:51:54.518Z,43.60
2023-01-05T19:54:22.673Z,49.90
2023-01-05T19:56:49.658Z,54.25
2023-01-05T19:59:19.354Z,53.65
2023-01-05T20:01:46.363Z,55.63
2023-01-05T20:04:14.080Z,47.72
2023-01-05T20:06:44.506Z,55.70
2023-01-05T20:09:17.547Z,52.10
2023-01-05T20:11:59.386Z,53.90
2023-01-05T20:14:32.966Z,52.60
2023-01-05T20:17:04.100Z,54.83
2023-01-05T20:19:32.476Z,48.50
2023-01-05T20:22:01.167Z,44.53
2023-01-05T20:24:31.169Z,43.85
2023-01-05T20:27:01.389Z,38.60
2023-01-05T20:29:29.290Z,38.42
2023-01-05T20:31:59.526Z,37.55
2023-01-05T20:34:31.877Z,34.80
2023-01-05T20:37:00.299Z,39.58
2023-01-05T20:39:27.235Z,38.75
2023-01-05T20:41:54.994Z,44.47
2023-01-05T20:44:25.589Z,43.08
2023-01-05T20:46:54.262Z,38.78
2023-01-05T20:49:22.136Z,45.03
2023-01-05T20:51:49.632Z,43.03
2023-01-05T20:54:16.553Z,46.38
2023-01-05T20:56:46.245Z,40.75
2023-01-05T20:59:26.549Z,44.40
2023-01-05T21:01:56.653Z,44.15
2023-01-05T21:04:25.291Z,44.40
2023-01-05T21:06:54.428Z,47.00
2023-01-05T21:09:25.600Z,41.20
2023-01-05T21:11:52.484Z,33.90
2023-01-05T21:14:20.107Z,32.13
2023-01-05T21:16:53.004Z,26.70
2023-01-05T21:19:23.206Z,22.10
2023-01-05T21:21:53.961Z,22.15
2023-01-05T21:24:21.529Z,16.75
2023-01-05T21:26:50.868Z,12.57
2023-01-05T21:29:20.425Z,13.65
2023-01-05T21:31:47.981Z,14.38
2023-01-05T21:34:15.431Z,19.42
2023-01-05T21:36:45.371Z,16.52
2023-01-05T21:39:22.099Z,13.68
2023-01-05T21:42:08.778Z,14.95
2023-01-05T21:44:36.347Z,11.80
2023-01-05T21:47:05.843Z,13.00
2023-01-05T21:49:36.585Z,10.65
2023-01-05T21:52:23.140Z,13.27
2023-01-05T21:55:08.577Z,9.43
2023-01-05T21:57:35.417Z,12.45
2023-01-05T22:00:03.036Z,10.02
2023-01-05T22:02:31.901Z,10.18
2023-01-05T22:04:58.708Z,10.93
2023-01-05T22:07:25.568Z,9.48
2023-01-05T22:09:52.485Z,10.77
2023-01-05T22:12:19.383Z,11.23
2023-01-05T22:14:46.337Z,10.43
2023-01-05T22:17:13.329Z,8.98
2023-01-05T22:19:40.095Z,11.52
2023-01-05T22:22:07.191Z,11.02
2023-01-05T22:24:34.011Z,8.15
2023-01-05T22:27:00.908Z,7.80
2023-01-05T22:29:27.840Z,7.10
2023-01-05T22:31:54.844Z,9.90
2023-01-05T22:34:21.791Z,9.73
2023-01-05T22:36:49.249Z,6.22
2023-01-05T22:39:16.662Z,10.60
2023-01-05T22:41:43.606Z,7.78
2023-01-05T22:44:10.458Z,8.30
2023-01-05T22:46:38.920Z,6.55
2023-01-05T22:49:06.066Z,8.88
2023-01-05T22:51:36.021Z,6.20
2023-01-05T22:54:04.430Z,6.57
2023-01-05T22:56:32.769Z,10.75
2023-01-05T22:59:00.121Z,6.82
2023-01-05T23:01:31.381Z,10.73
2023-01-05T23:04:00.447Z,9.93
2023-01-05T23:06:28.316Z,14.38
2023-01-05T23:08:55.926Z,7.70
2023-01-05T23:11:31.361Z,8.38
2023-01-05T23:14:00.218Z,10.40
2023-01-05T23:16:27.998Z,13.27
2023-01-05T23:18:55.437Z,8.50
2023-01-05T23:21:24.400Z,14.65
2023-01-05T23:23:52.555Z,9.30
2023-01-05T23:26:20.442Z,7.97
2023-01-05T23:28:48.127Z,12.23
2023-01-05T23:31:16.480Z,10.18
2023-01-05T23:33:44.081Z,16.35
2023-01-05T23:36:12.768Z,12.35
2023-01-05T23:38:40.195Z,5.82
2023-01-05T23:41:08.701Z,20.90
2023-01-05T23:43:38.009Z,9.27
2023-01-05T23:46:17.730Z,19.00
2023-01-05T23:48:44.660Z,12.27
2023-01-05T23:51:17.121Z,11.15
2023-01-05T23:53:49.180Z,11.85
2023-01-05T23:56:19.524Z,16.73
2023-01-05T23:58:47.444Z,17.48
